createdAt,value
2023-04-21T00:00:01.804Z,20.50
2023-04-21T00:02:04.616Z,19.30
2023-04-21T00:04:08.281Z,19.57
2023-04-21T00:06:11.125Z,20.43
2023-04-21T00:08:13.916Z,21.23
2023-04-21T00:10:16.674Z,20.53
2023-04-21T00:12:20.856Z,21.17
2023-04-21T00:14:23.619Z,21.70
2023-04-21T00:16:26.949Z,20.30
2023-04-21T00:18:29.896Z,20.20
2023-04-21T00:20:32.733Z,20.47
2023-04-21T00:22:35.700Z,20.27
2023-04-21T00:24:38.493Z,20.77
2023-04-21T00:26:41.321Z,21.33
2023-04-21T00:28:45.406Z,20.23
2023-04-21T00:30:48.143Z,20.27
2023-04-21T00:32:51.063Z,20.30
2023-04-21T00:34:53.900Z,20.10
2023-04-21T00:36:56.662Z,21.70
2023-04-21T00:38:59.338Z,19.77
2023-04-21T00:41:02.029Z,18.73
2023-04-21T00:43:07.482Z,20.10
2023-04-21T00:45:12.510Z,19.60
2023-04-21T00:47:15.436Z,19.90
2023-04-21T00:49:18.543Z,19.90
2023-04-21T00:51:21.746Z,18.63
2023-04-21T00:53:24.547Z,20.57
2023-04-21T00:55:29.154Z,19.17
2023-04-21T00:57:33.091Z,19.80
2023-04-21T00:59:36.235Z,19.83
2023-04-21T01:01:41.537Z,19.27
2023-04-21T01:03:44.517Z,19.60
2023-04-21T01:05:47.502Z,19.53
2023-04-21T01:07:51.128Z,19.63
2023-04-21T01:09:54.128Z,20.20
2023-04-21T01:12:04.177Z,20.27
2023-04-21T01:14:07.083Z,19.63
2023-04-21T01:16:10.306Z,20.33
2023-04-21T01:18:14.535Z,19.03
2023-04-21T01:20:17.620Z,19.77
2023-04-21T01:22:21.842Z,18.57
2023-04-21T01:24:25.287Z,19.67
2023-04-21T01:26:30.526Z,18.70
2023-04-21T01:28:33.330Z,19.30
2023-04-21T01:30:36.119Z,19.57
2023-04-21T01:32:39.049Z,18.40
2023-04-21T01:34:42.540Z,18.47
2023-04-21T01:36:45.406Z,19.27
2023-04-21T01:38:49.670Z,18.87
2023-04-21T01:40:54.940Z,17.27
2023-04-21T01:43:00.897Z,19.03
2023-04-21T01:45:04.129Z,18.93
2023-04-21T01:47:09.917Z,18.00
2023-04-21T01:49:12.661Z,19.20
2023-04-21T01:51:15.466Z,19.10
2023-04-21T01:53:18.286Z,19.40
2023-04-21T01:55:22.927Z,19.37
2023-04-21T01:57:25.739Z,18.57
2023-04-21T01:59:29.092Z,18.47
2023-04-21T02:01:31.881Z,20.47
2023-04-21T02:03:34.944Z,19.83
2023-04-21T02:05:38.072Z,19.80
2023-04-21T02:07:40.850Z,19.93
2023-04-21T02:09:43.636Z,19.57
2023-04-21T02:11:47.875Z,20.83
2023-04-21T02:13:51.040Z,20.40
2023-04-21T02:16:02.755Z,20.23
2023-04-21T02:18:09.331Z,19.73
2023-04-21T02:20:13.300Z,20.67
2023-04-21T02:22:16.232Z,20.33
2023-04-21T02:24:19.073Z,20.30
2023-04-21T02:26:22.123Z,20.00
2023-04-21T02:28:26.212Z,20.17
2023-04-21T02:30:29.053Z,20.90
2023-04-21T02:32:32.527Z,20.93
2023-04-21T02:34:35.413Z,20.40
2023-04-21T02:36:38.169Z,20.57
2023-04-21T02:38:40.959Z,20.70
2023-04-21T02:40:43.776Z,20.90
2023-04-21T02:42:46.803Z,21.80
2023-04-21T02:44:51.162Z,21.73
2023-04-21T02:46:54.363Z,20.67
2023-04-21T02:48:57.472Z,22.00
2023-04-21T02:51:00.224Z,20.40
2023-04-21T02:53:03.240Z,20.83
2023-04-21T02:55:06.834Z,20.40
2023-04-21T02:57:09.581Z,20.33
2023-04-21T02:59:16.488Z,21.50
2023-04-21T03:01:21.025Z,20.00
2023-04-21T03:03:24.231Z,20.73
2023-04-21T03:05:27.482Z,20.07
2023-04-21T03:07:30.206Z,20.67
2023-04-21T03:09:33.058Z,19.47
2023-04-21T03:11:36.193Z,19.30
2023-04-21T03:13:39.086Z,18.90
2023-04-21T03:15:41.905Z,20.03
2023-04-21T03:17:46.027Z,20.07
2023-04-21T03:19:51.190Z,20.97
2023-04-21T03:21:54.051Z,19.87
2023-04-21T03:23:56.828Z,19.67
2023-04-21T03:25:59.601Z,19.77
2023-04-21T03:28:02.479Z,20.47
2023-04-21T03:30:06.772Z,20.10
2023-04-21T03:32:09.667Z,21.10
2023-04-21T03:34:13.798Z,20.57
2023-04-21T03:36:18.033Z,20.60
2023-04-21T03:38:20.824Z,21.37
2023-04-21T03:40:24.068Z,19.67
2023-04-21T03:42:26.844Z,21.63
2023-04-21T03:44:29.673Z,22.10
2023-04-21T03:46:32.600Z,21.93
2023-04-21T03:48:35.423Z,20.73
2023-04-21T03:50:40.853Z,20.47
2023-04-21T03:52:43.649Z,20.23
2023-04-21T03:54:46.674Z,21.13
2023-04-21T03:56:49.661Z,20.97
2023-04-21T03:58:52.571Z,20.37
2023-04-21T04:00:55.500Z,21.53
2023-04-21T04:02:58.578Z,20.33
2023-04-21T04:05:02.764Z,21.90
2023-04-21T04:07:08.816Z,20.33
2023-04-21T04:09:11.687Z,21.03
2023-04-21T04:11:14.684Z,19.93
2023-04-21T04:13:18.421Z,19.87
2023-04-21T04:15:21.275Z,19.33
2023-04-21T04:17:24.096Z,20.97
2023-04-21T04:19:31.598Z,21.10
2023-04-21T04:21:34.470Z,20.23
2023-04-21T04:23:38.923Z,18.97
2023-04-21T04:25:42.619Z,19.00
2023-04-21T04:27:45.728Z,20.37
2023-04-21T04:29:49.299Z,19.50
2023-04-21T04:31:52.474Z,20.30
2023-04-21T04:33:55.757Z,20.27
2023-04-21T04:35:59.686Z,18.57
2023-04-21T04:38:04.353Z,20.67
2023-04-21T04:40:12.123Z,19.90
2023-04-21T04:42:14.937Z,20.03
2023-04-21T04:44:19.150Z,18.10
2023-04-21T04:46:22.334Z,19.33
2023-04-21T04:48:25.429Z,20.57
2023-04-21T04:50:28.374Z,19.30
2023-04-21T04:52:31.961Z,19.80
2023-04-21T04:54:34.750Z,18.57
2023-04-21T04:56:39.395Z,19.53
2023-04-21T04:58:42.330Z,18.57
2023-04-21T05:00:45.156Z,17.70
2023-04-21T05:02:48.060Z,18.63
2023-04-21T05:04:50.969Z,19.30
2023-04-21T05:06:53.792Z,17.17
2023-04-21T05:08:57.098Z,17.73
2023-04-21T05:11:00.307Z,17.40
2023-04-21T05:13:04.398Z,18.40
2023-04-21T05:15:08.077Z,17.30
2023-04-21T05:17:10.831Z,17.40
2023-04-21T05:19:14.578Z,17.50
2023-04-21T05:21:24.912Z,16.67
2023-04-21T05:23:28.042Z,16.20
2023-04-21T05:25:30.940Z,16.63
2023-04-21T05:27:34.771Z,16.80
2023-04-21T05:29:38.869Z,15.43
2023-04-21T05:31:43.013Z,15.87
2023-04-21T05:33:45.858Z,15.43
2023-04-21T05:35:48.612Z,14.57
2023-04-21T05:37:51.434Z,15.30
2023-04-21T05:39:54.204Z,14.43
2023-04-21T05:41:57.048Z,14.53
2023-04-21T05:43:59.999Z,14.23
2023-04-21T05:46:05.663Z,14.73
2023-04-21T05:48:09.809Z,13.50
2023-04-21T05:50:14.034Z,13.10
2023-04-21T05:52:18.163Z,13.20
2023-04-21T05:54:21.067Z,13.47
2023-04-21T05:56:24.007Z,13.00
2023-04-21T05:58:26.765Z,12.67
2023-04-21T06:00:29.630Z,13.47
2023-04-21T06:02:34.150Z,12.63
2023-04-21T06:04:37.224Z,12.50
2023-04-21T06:06:40.154Z,13.10
2023-04-21T06:08:43.008Z,12.63
2023-04-21T06:10:45.754Z,12.27
2023-04-21T06:12:49.805Z,12.50
2023-04-21T06:14:52.872Z,12.17
2023-04-21T06:16:57.179Z,11.77
2023-04-21T06:19:01.422Z,12.87
2023-04-21T06:21:04.574Z,13.07
2023-04-21T06:23:07.407Z,11.93
2023-04-21T06:25:10.579Z,13.10
2023-04-21T06:27:14.170Z,12.20
2023-04-21T06:29:16.964Z,12.37
2023-04-21T06:31:19.908Z,11.83
2023-04-21T06:33:23.278Z,12.23
2023-04-21T06:35:27.531Z,12.37
2023-04-21T06:37:30.322Z,12.33
2023-04-21T06:39:33.061Z,12.60
2023-04-21T06:41:35.882Z,12.37
2023-04-21T06:43:38.990Z,11.93
2023-04-21T06:45:41.886Z,12.47
2023-04-21T06:47:44.873Z,12.63
2023-04-21T06:49:47.609Z,11.77
2023-04-21T06:51:51.734Z,11.97
2023-04-21T06:53:54.582Z,11.60
2023-04-21T06:55:58.379Z,13.20
2023-04-21T06:58:01.220Z,12.47
2023-04-21T07:00:06.037Z,11.87
2023-04-21T07:02:09.019Z,11.90
2023-04-21T07:04:11.945Z,11.83
2023-04-21T07:06:14.998Z,11.77
2023-04-21T07:08:19.109Z,11.13
2023-04-21T07:10:22.126Z,12.10
2023-04-21T07:12:25.517Z,11.93
2023-04-21T07:14:28.246Z,11.33
2023-04-21T07:16:31.244Z,12.23
2023-04-21T07:18:34.687Z,11.43
2023-04-21T07:20:38.076Z,10.77
2023-04-21T07:22:40.948Z,10.70
2023-04-21T07:24:45.464Z,10.53
2023-04-21T07:26:48.285Z,9.70
2023-04-21T07:28:52.792Z,10.70
2023-04-21T07:30:55.745Z,9.47
2023-04-21T07:32:59.452Z,10.07
2023-04-21T07:35:03.061Z,10.30
2023-04-21T07:37:06.040Z,9.70
2023-04-21T07:39:08.823Z,10.67
2023-04-21T07:41:13.704Z,8.90
2023-04-21T07:43:16.491Z,9.17
2023-04-21T07:45:19.383Z,8.90
2023-04-21T07:47:22.135Z,9.17
2023-04-21T07:49:24.876Z,8.67
2023-04-21T07:51:28.697Z,8.90
2023-04-21T07:53:31.695Z,9.33
2023-04-21T07:55:34.623Z,8.70
2023-04-21T07:57:40.160Z,8.50
2023-04-21T07:59:42.973Z,8.53
2023-04-21T08:01:46.034Z,7.83
2023-04-21T08:03:49.068Z,8.53
2023-04-21T08:05:52.098Z,7.83
2023-04-21T08:07:54.977Z,9.17
2023-04-21T08:09:57.777Z,8.20
2023-04-21T08:12:00.569Z,8.50
2023-04-21T08:14:04.712Z,7.90
2023-04-21T08:16:08.581Z,8.13
2023-04-21T08:18:11.531Z,9.13
2023-04-21T08:20:14.962Z,8.53
2023-04-21T08:22:17.752Z,9.27
2023-04-21T08:24:20.983Z,7.90
2023-04-21T08:26:25.136Z,7.70
2023-04-21T08:28:27.992Z,8.07
2023-04-21T08:30:32.329Z,8.23
2023-04-21T08:32:35.260Z,8.20
2023-04-21T08:34:38.113Z,7.90
2023-04-21T08:36:41.570Z,7.83
2023-04-21T08:38:47.853Z,8.00
2023-04-21T08:40:50.630Z,7.70
2023-04-21T08:42:53.528Z,7.43
2023-04-21T08:44:56.435Z,7.53
2023-04-21T08:47:01.244Z,7.40
2023-04-21T08:49:04.852Z,7.07
2023-04-21T08:51:10.566Z,7.47
2023-04-21T08:53:15.197Z,7.37
2023-04-21T08:55:18.015Z,7.87
2023-04-21T08:57:20.813Z,6.97
2023-04-21T08:59:23.990Z,7.00
2023-04-21T09:01:26.874Z,6.50
2023-04-21T09:03:31.321Z,6.73
2023-04-21T09:05:41.926Z,7.20
2023-04-21T09:07:46.196Z,6.90
2023-04-21T09:09:56.145Z,7.13
2023-04-21T09:11:59.805Z,6.63
2023-04-21T09:14:02.566Z,7.20
2023-04-21T09:16:08.479Z,6.87
2023-04-21T09:18:16.335Z,6.43
2023-04-21T09:20:22.326Z,7.03
2023-04-21T09:22:29.242Z,6.20
2023-04-21T09:24:32.005Z,6.70
2023-04-21T09:26:37.101Z,6.70
2023-04-21T09:28:43.092Z,7.03
2023-04-21T09:30:45.935Z,6.70
2023-04-21T09:32:48.871Z,6.83
2023-04-21T09:34:52.017Z,7.00
2023-04-21T09:37:03.264Z,6.97
2023-04-21T09:41:13.531Z,6.60
2023-04-21T09:43:17.240Z,6.87
2023-04-21T09:47:28.749Z,6.67
2023-04-21T09:49:37.090Z,7.07
2023-04-21T09:52:05.971Z,7.07
2023-04-21T09:54:25.971Z,6.13
2023-04-21T09:56:36.662Z,6.87
2023-04-21T09:58:44.838Z,6.90
2023-04-21T10:00:48.719Z,6.80
2023-04-21T10:02:53.697Z,6.20
2023-04-21T10:04:57.006Z,6.90
2023-04-21T10:07:00.834Z,6.23
2023-04-21T10:09:06.628Z,5.80
2023-04-21T10:11:09.999Z,6.03
2023-04-21T10:13:15.981Z,5.87
2023-04-21T10:15:33.200Z,6.93
2023-04-21T10:17:37.890Z,5.87
2023-04-21T10:19:50.365Z,6.07
2023-04-21T10:21:56.100Z,5.77
2023-04-21T10:23:59.234Z,6.20
2023-04-21T10:26:09.715Z,6.00
2023-04-21T10:28:12.470Z,6.00
2023-04-21T10:30:22.987Z,6.97
2023-04-21T10:32:42.405Z,5.90
2023-04-21T10:34:45.676Z,6.00
2023-04-21T10:37:11.404Z,5.87
2023-04-21T10:39:27.326Z,5.63
2023-04-21T10:41:32.814Z,6.00
2023-04-21T10:43:48.163Z,6.70
2023-04-21T10:45:52.184Z,6.43
2023-04-21T10:47:55.013Z,6.23
2023-04-21T10:49:58.723Z,6.13
2023-04-21T10:52:09.274Z,5.93
2023-04-21T10:54:15.250Z,6.30
2023-04-21T10:56:18.600Z,5.47
2023-04-21T10:58:25.822Z,5.73
2023-04-21T11:00:29.294Z,5.40
2023-04-21T11:02:32.298Z,5.97
2023-04-21T11:04:36.049Z,5.50
2023-04-21T11:06:39.162Z,5.47
2023-04-21T11:08:56.596Z,5.17
2023-04-21T11:10:59.646Z,5.20
2023-04-21T11:13:02.421Z,6.03
2023-04-21T11:15:09.650Z,5.30
2023-04-21T11:17:17.151Z,5.53
2023-04-21T11:19:24.232Z,5.80
2023-04-21T11:21:27.146Z,4.97
2023-04-21T11:23:30.561Z,4.90
2023-04-21T11:25:33.423Z,4.93
2023-04-21T11:27:37.209Z,5.70
2023-04-21T11:29:41.665Z,5.03
2023-04-21T11:31:49.076Z,4.97
2023-04-21T11:33:51.826Z,5.07
2023-04-21T11:35:59.158Z,4.50
2023-04-21T11:38:06.558Z,4.23
2023-04-21T11:40:11.359Z,4.93
2023-04-21T11:42:25.248Z,4.60
2023-04-21T11:44:36.155Z,4.93
2023-04-21T11:46:47.751Z,4.73
2023-04-21T11:49:01.060Z,5.30
2023-04-21T11:51:04.114Z,4.67
2023-04-21T11:53:08.107Z,4.60
2023-04-21T11:55:15.614Z,4.60
2023-04-21T11:57:20.183Z,4.60
2023-04-21T11:59:29.475Z,4.90
2023-04-21T12:01:32.244Z,4.53
2023-04-21T12:03:35.600Z,4.77
2023-04-21T12:05:39.943Z,4.50
2023-04-21T12:07:44.669Z,5.23
2023-04-21T12:09:55.596Z,4.57
2023-04-21T12:12:00.229Z,4.57
2023-04-21T12:14:03.126Z,4.40
2023-04-21T12:16:06.767Z,4.47
2023-04-21T12:18:14.585Z,4.63
2023-04-21T12:20:19.319Z,4.57
2023-04-21T12:22:23.743Z,4.50
2023-04-21T12:24:26.991Z,4.47
2023-04-21T12:26:30.408Z,4.40
2023-04-21T12:28:33.399Z,4.30
2023-04-21T12:30:39.362Z,4.00
2023-04-21T12:32:47.509Z,4.50
2023-04-21T12:34:50.628Z,4.13
2023-04-21T12:36:53.516Z,4.40
2023-04-21T12:39:00.296Z,4.73
2023-04-21T12:41:03.077Z,4.30
2023-04-21T12:43:08.196Z,4.83
2023-04-21T12:45:11.741Z,5.23
2023-04-21T12:47:14.564Z,4.80
2023-04-21T12:49:17.712Z,4.30
2023-04-21T12:51:20.539Z,4.30
2023-04-21T12:53:23.274Z,4.40
2023-04-21T12:55:27.390Z,4.73
2023-04-21T12:57:31.830Z,4.37
2023-04-21T12:59:34.575Z,4.47
2023-04-21T13:01:38.017Z,4.10
2023-04-21T13:03:40.890Z,4.23
2023-04-21T13:05:45.684Z,4.13
2023-04-21T13:07:51.258Z,4.30
2023-04-21T13:09:54.017Z,4.30
2023-04-21T13:11:58.172Z,4.60
2023-04-21T13:14:01.095Z,4.30
2023-04-21T13:16:03.951Z,4.20
2023-04-21T13:18:07.090Z,4.10
2023-04-21T13:20:10.802Z,4.00
2023-04-21T13:22:13.563Z,4.13
2023-04-21T13:24:16.407Z,4.00
2023-04-21T13:26:19.510Z,4.07
2023-04-21T13:28:24.391Z,3.77
2023-04-21T13:30:27.290Z,3.90
2023-04-21T13:32:30.136Z,4.43
2023-04-21T13:34:34.379Z,4.20
2023-04-21T13:36:37.499Z,4.30
2023-04-21T13:38:41.958Z,3.93
2023-04-21T13:40:45.572Z,4.45
2023-04-21T13:42:48.453Z,4.20
2023-04-21T13:44:52.879Z,3.83
2023-04-21T13:46:57.324Z,3.97
2023-04-21T13:49:00.363Z,4.30
2023-04-21T13:51:03.127Z,3.93
2023-04-21T13:53:06.055Z,4.10
2023-04-21T13:55:09.397Z,4.13
2023-04-21T13:57:12.206Z,4.00
2023-04-21T13:59:16.567Z,3.70
2023-04-21T14:01:21.678Z,3.97
2023-04-21T14:03:24.876Z,4.07
2023-04-21T14:05:28.093Z,3.60
2023-04-21T14:07:31.045Z,3.57
2023-04-21T14:09:34.036Z,3.80
2023-04-21T14:11:37.153Z,3.70
2023-04-21T14:13:44.887Z,3.95
2023-04-21T14:15:55.042Z,3.97
2023-04-21T14:18:00.443Z,3.90
2023-04-21T14:20:04.127Z,3.83
2023-04-21T14:22:09.091Z,3.90
2023-04-21T14:24:11.857Z,4.03
2023-04-21T14:26:14.676Z,3.70
2023-04-21T14:28:17.481Z,3.53
2023-04-21T14:30:22.734Z,3.50
2023-04-21T14:32:25.988Z,3.80
2023-04-21T14:34:32.452Z,3.53
2023-04-21T14:36:35.425Z,3.30
2023-04-21T14:38:38.368Z,3.63
2023-04-21T14:40:41.189Z,3.30
2023-04-21T14:42:44.062Z,3.30
2023-04-21T14:44:46.888Z,3.40
2023-04-21T14:47:00.894Z,3.42
2023-04-21T14:49:08.850Z,3.30
2023-04-21T14:51:13.032Z,3.40
2023-04-21T14:53:15.888Z,3.08
2023-04-21T14:55:19.109Z,3.78
2023-04-21T14:57:22.694Z,3.35
2023-04-21T14:59:28.033Z,3.00
2023-04-21T15:01:31.325Z,3.08
2023-04-21T15:03:34.388Z,2.95
2023-04-21T15:05:37.478Z,3.00
2023-04-21T15:07:42.942Z,3.10
2023-04-21T15:09:47.504Z,3.00
2023-04-21T15:11:52.148Z,3.08
2023-04-21T15:13:57.015Z,2.75
2023-04-21T15:15:59.982Z,2.88
2023-04-21T15:18:02.816Z,2.78
2023-04-21T15:20:06.644Z,2.83
2023-04-21T15:22:09.730Z,3.00
2023-04-21T15:24:13.959Z,2.55
2023-04-21T15:26:16.793Z,2.83
2023-04-21T15:28:19.646Z,2.50
2023-04-21T15:30:22.470Z,2.67
2023-04-21T15:32:25.478Z,3.10
2023-04-21T15:34:28.289Z,2.72
2023-04-21T15:36:32.181Z,2.95
2023-04-21T15:38:35.483Z,3.00
2023-04-21T15:40:53.190Z,2.95
2023-04-21T15:43:03.385Z,2.60
2023-04-21T15:45:07.597Z,2.42
2023-04-21T15:47:10.388Z,2.90
2023-04-21T15:49:13.343Z,2.65
2023-04-21T15:51:16.337Z,2.97
2023-04-21T15:53:20.478Z,2.70
2023-04-21T15:55:24.363Z,2.90
2023-04-21T15:57:29.806Z,2.63
2023-04-21T15:59:33.009Z,2.95
2023-04-21T16:01:36.783Z,2.75
2023-04-21T16:03:41.323Z,2.88
2023-04-21T16:05:44.873Z,3.03
2023-04-21T16:07:48.257Z,3.00
2023-04-21T16:09:51.690Z,2.63
2023-04-21T16:11:54.488Z,3.10
2023-04-21T16:13:59.077Z,2.92
2023-04-21T16:16:02.285Z,2.90
2023-04-21T16:18:06.627Z,2.50
2023-04-21T16:20:12.259Z,2.70
2023-04-21T16:22:15.765Z,3.10
2023-04-21T16:24:18.897Z,2.90
2023-04-21T16:26:22.824Z,2.73
2023-04-21T16:28:25.905Z,3.25
2023-04-21T16:30:30.329Z,3.13
2023-04-21T16:32:35.193Z,3.00
2023-04-21T16:34:40.040Z,2.50
2023-04-21T16:36:43.193Z,3.03
2023-04-21T16:38:46.179Z,3.03
2023-04-21T16:40:49.765Z,2.88
2023-04-21T16:42:52.890Z,2.65
2023-04-21T16:45:01.179Z,2.92
2023-04-21T16:47:05.590Z,2.63
2023-04-21T16:49:08.754Z,2.58
2023-04-21T16:51:13.981Z,3.33
2023-04-21T16:53:16.852Z,2.53
2023-04-21T16:55:20.143Z,2.70
2023-04-21T16:57:24.526Z,2.88
2023-04-21T16:59:27.463Z,2.50
2023-04-21T17:01:30.432Z,2.67
2023-04-21T17:03:35.095Z,2.72
2023-04-21T17:05:41.118Z,2.92
2023-04-21T17:07:45.144Z,2.80
2023-04-21T17:09:48.015Z,2.95
2023-04-21T17:11:51.290Z,2.70
2023-04-21T17:13:54.294Z,2.87
2023-04-21T17:15:57.232Z,3.20
2023-04-21T17:18:00.250Z,2.80
2023-04-21T17:20:04.591Z,2.90
2023-04-21T17:22:07.738Z,2.60
2023-04-21T17:24:10.544Z,3.40
2023-04-21T17:26:13.496Z,3.03
2023-04-21T17:28:16.649Z,2.90
2023-04-21T17:30:21.600Z,2.80
2023-04-21T17:32:24.476Z,2.97
2023-04-21T17:34:27.323Z,3.00
2023-04-21T17:36:31.837Z,3.10
2023-04-21T17:38:34.651Z,3.20
2023-04-21T17:40:37.411Z,2.90
2023-04-21T17:42:41.329Z,3.30
2023-04-21T17:44:44.204Z,2.90
2023-04-21T17:46:47.220Z,3.00
2023-04-21T17:48:50.452Z,2.90
2023-04-21T17:50:53.213Z,2.97
2023-04-21T17:52:57.477Z,3.00
2023-04-21T17:55:00.518Z,3.20
2023-04-21T17:57:03.687Z,3.20
2023-04-21T17:59:06.788Z,2.80
2023-04-21T18:01:09.706Z,3.10
2023-04-21T18:03:12.781Z,3.23
2023-04-21T18:05:17.028Z,2.80
2023-04-21T18:07:20.723Z,3.00
2023-04-21T18:09:25.395Z,3.07
2023-04-21T18:11:28.686Z,2.70
2023-04-21T18:13:31.617Z,2.87
2023-04-21T18:15:34.436Z,3.00
2023-04-21T18:17:37.453Z,2.83
2023-04-21T18:19:40.388Z,2.63
2023-04-21T18:21:43.232Z,3.83
2023-04-21T18:23:46.502Z,3.50
2023-04-21T18:25:51.101Z,2.80
2023-04-21T18:27:53.917Z,2.90
2023-04-21T18:29:56.800Z,3.17
2023-04-21T18:31:59.688Z,3.43
2023-04-21T18:34:03.739Z,3.23
2023-04-21T18:36:07.076Z,3.37
2023-04-21T18:38:11.524Z,3.00
2023-04-21T18:40:14.560Z,2.90
2023-04-21T18:42:21.312Z,3.27
2023-04-21T18:44:24.171Z,2.80
2023-04-21T18:46:27.022Z,3.03
2023-04-21T18:48:29.933Z,2.60
2023-04-21T18:50:35.938Z,2.80
2023-04-21T18:52:40.592Z,2.87
2023-04-21T18:54:43.409Z,2.77
2023-04-21T18:56:46.884Z,3.07
2023-04-21T18:58:51.254Z,2.83
2023-04-21T19:00:54.663Z,2.57
2023-04-21T19:02:57.720Z,2.70
2023-04-21T19:05:00.641Z,3.10
2023-04-21T19:07:03.936Z,2.97
2023-04-21T19:09:07.535Z,2.67
2023-04-21T19:11:11.018Z,2.73
2023-04-21T19:13:15.913Z,2.83
2023-04-21T19:15:21.982Z,3.00
2023-04-21T19:17:25.145Z,2.77
2023-04-21T19:19:27.955Z,3.10
2023-04-21T19:21:31.152Z,3.07
2023-04-21T19:23:36.531Z,3.10
2023-04-21T19:25:39.370Z,2.90
2023-04-21T19:27:42.647Z,2.60
2023-04-21T19:29:45.491Z,2.63
2023-04-21T19:31:49.633Z,3.03
2023-04-21T19:33:52.529Z,2.70
2023-04-21T19:35:55.292Z,2.70
2023-04-21T19:37:59.080Z,2.63
2023-04-21T19:40:02.095Z,2.80
2023-04-21T19:42:05.019Z,2.70
2023-04-21T19:44:07.788Z,2.50
2023-04-21T19:46:11.200Z,2.63
2023-04-21T19:48:15.850Z,2.67
2023-04-21T19:50:18.863Z,2.77
2023-04-21T19:52:21.644Z,3.20
2023-04-21T19:54:24.452Z,2.67
2023-04-21T19:56:29.962Z,2.90
2023-04-21T20:00:41.695Z,2.97
2023-04-21T20:02:44.559Z,2.97
2023-04-21T20:04:49.455Z,3.47
2023-04-21T20:06:52.475Z,3.30
2023-04-21T20:08:55.676Z,3.53
2023-04-21T20:10:58.440Z,3.63
2023-04-21T20:13:01.382Z,2.80
2023-04-21T20:15:05.628Z,2.87
2023-04-21T20:17:08.893Z,2.90
2023-04-21T20:19:11.644Z,3.00
2023-04-21T20:21:15.824Z,2.67
2023-04-21T20:23:18.670Z,3.00
2023-04-21T20:25:23.912Z,2.83
2023-04-21T20:27:28.230Z,3.13
2023-04-21T20:29:31.266Z,2.53
2023-04-21T20:31:34.319Z,3.20
2023-04-21T20:33:37.137Z,2.67
2023-04-21T20:35:44.138Z,2.70
2023-04-21T20:37:48.363Z,3.33
2023-04-21T20:39:51.269Z,2.90
2023-04-21T20:42:08.932Z,3.40
2023-04-21T20:44:15.491Z,3.70
2023-04-21T20:46:19.476Z,3.57
2023-04-21T20:48:22.648Z,3.73
2023-04-21T20:50:25.997Z,3.00
2023-04-21T20:52:30.639Z,3.50
2023-04-21T20:54:35.231Z,3.23
2023-04-21T20:56:38.169Z,3.40
2023-04-21T20:58:41.370Z,3.00
2023-04-21T21:00:44.309Z,3.27
2023-04-21T21:02:47.505Z,3.23
2023-04-21T21:04:50.353Z,3.63
2023-04-21T21:06:53.157Z,3.47
2023-04-21T21:08:57.326Z,3.60
2023-04-21T21:11:01.489Z,3.77
2023-04-21T21:13:04.494Z,3.80
2023-04-21T21:15:08.790Z,3.83
2023-04-21T21:17:14.804Z,3.33
2023-04-21T21:19:17.592Z,3.53
2023-04-21T21:21:20.534Z,3.67
2023-04-21T21:23:23.715Z,3.87
2023-04-21T21:25:27.149Z,3.73
2023-04-21T21:27:31.334Z,3.57
2023-04-21T21:29:34.616Z,4.13
2023-04-21T21:31:38.129Z,3.47
2023-04-21T21:33:40.997Z,3.27
2023-04-21T21:35:43.978Z,3.03
2023-04-21T21:37:46.937Z,3.30
2023-04-21T21:39:49.792Z,3.10
2023-04-21T21:41:52.695Z,3.13
2023-04-21T21:43:56.773Z,3.10
2023-04-21T21:46:02.020Z,3.33
2023-04-21T21:48:05.543Z,3.00
2023-04-21T21:50:12.220Z,3.00
2023-04-21T21:52:16.494Z,3.10
2023-04-21T21:54:19.443Z,3.00
2023-04-21T21:56:23.947Z,3.80
2023-04-21T21:58:27.304Z,3.30
2023-04-21T22:00:32.893Z,3.30
2023-04-21T22:02:37.799Z,3.50
2023-04-21T22:04:41.556Z,3.73
2023-04-21T22:06:45.514Z,3.20
2023-04-21T22:08:48.722Z,3.47
2023-04-21T22:10:51.489Z,3.10
2023-04-21T22:12:54.632Z,3.50
2023-04-21T22:14:57.616Z,3.50
2023-04-21T22:17:02.880Z,3.30
2023-04-21T22:19:10.402Z,3.33
2023-04-21T22:21:13.251Z,3.90
2023-04-21T22:23:16.528Z,3.30
2023-04-21T22:25:19.618Z,3.60
2023-04-21T22:27:22.469Z,3.60
2023-04-21T22:29:25.588Z,3.73
2023-04-21T22:31:28.923Z,3.60
2023-04-21T22:33:33.378Z,3.83
2023-04-21T22:35:36.253Z,4.10
2023-04-21T22:37:39.003Z,3.50
2023-04-21T22:39:42.030Z,3.40
2023-04-21T22:41:44.854Z,3.50
2023-04-21T22:43:47.658Z,3.47
2023-04-21T22:45:50.792Z,3.97
2023-04-21T22:47:53.818Z,3.70
2023-04-21T22:49:58.034Z,3.53
2023-04-21T22:52:01.912Z,3.60
2023-04-21T22:54:04.978Z,3.80
2023-04-21T22:56:08.046Z,3.47
2023-04-21T22:58:11.253Z,3.73
2023-04-21T23:00:15.355Z,3.53
2023-04-21T23:02:18.292Z,3.53
2023-04-21T23:04:21.842Z,3.73
2023-04-21T23:06:28.363Z,4.00
2023-04-21T23:08:31.255Z,4.00
2023-04-21T23:10:34.328Z,3.87
2023-04-21T23:12:39.405Z,3.83
2023-04-21T23:14:42.199Z,4.20
2023-04-21T23:16:46.271Z,3.97
2023-04-21T23:18:49.328Z,4.10
2023-04-21T23:20:52.142Z,3.63
2023-04-21T23:22:56.419Z,4.23
2023-04-21T23:24:59.302Z,4.50
2023-04-21T23:27:02.385Z,4.37
2023-04-21T23:29:06.082Z,4.10
2023-04-21T23:31:08.987Z,4.00
2023-04-21T23:33:11.877Z,4.30
2023-04-21T23:35:14.693Z,4.40
2023-04-21T23:37:17.451Z,4.33
2023-04-21T23:39:22.474Z,4.20
2023-04-21T23:41:25.358Z,4.37
2023-04-21T23:43:30.635Z,4.13
2023-04-21T23:45:33.410Z,3.90
2023-04-21T23:47:36.237Z,3.67
2023-04-21T23:49:39.298Z,3.83
2023-04-21T23:51:42.695Z,3.17
2023-04-21T23:53:45.817Z,3.20
2023-04-21T23:55:50.114Z,3.60
2023-04-21T23:57:54.379Z,3.77
2023-04-21T23:59:57.247Z,3.43
